createdAt,value
2023-03-06T00:00:18.362Z,67.69
2023-03-06T00:04:18.565Z,67.53
2023-03-06T00:08:00.701Z,67.71
2023-03-06T00:11:50.021Z,67.51
2023-03-06T00:15:39.236Z,68.11
2023-03-06T00:19:28.500Z,67.79
2023-03-06T00:23:17.767Z,67.63
2023-03-06T00:27:06.978Z,68.16
2023-03-06T00:30:29.747Z,68.59
2023-03-06T00:34:02.021Z,68.73
2023-03-06T00:37:34.785Z,68.29
2023-03-06T00:41:24.077Z,67.98
2023-03-06T00:44:46.083Z,67.81
2023-03-06T00:48:28.446Z,67.57
2023-03-06T00:52:08.771Z,67.20
2023-03-06T00:55:42.852Z,67.97
2023-03-06T00:59:32.354Z,67.54
2023-03-06T01:03:15.245Z,67.77
2023-03-06T01:07:04.442Z,68.15
2023-03-06T01:10:53.694Z,67.89
2023-03-06T01:14:42.881Z,68.12
2023-03-06T01:18:34.969Z,67.80
2023-03-06T01:22:24.158Z,68.48
2023-03-06T01:26:13.425Z,68.11
2023-03-06T01:30:02.708Z,69.30
2023-03-06T01:33:52.042Z,69.26
2023-03-06T01:37:41.275Z,68.64
2023-03-06T01:41:30.466Z,68.61
2023-03-06T01:45:19.694Z,68.89
2023-03-06T01:49:26.452Z,68.34
2023-03-06T01:53:15.772Z,68.60
2023-03-06T01:57:04.134Z,68.58
2023-03-06T02:01:02.353Z,70.07
2023-03-06T02:04:44.890Z,70.10
2023-03-06T02:08:34.155Z,70.42
2023-03-06T02:12:23.383Z,70.99
2023-03-06T02:16:12.532Z,72.08
2023-03-06T02:19:40.117Z,71.83
2023-03-06T02:23:21.231Z,72.02
2023-03-06T02:27:04.155Z,71.48
2023-03-06T02:30:59.683Z,71.30
2023-03-06T02:34:55.108Z,72.04
2023-03-06T02:38:44.370Z,70.67
2023-03-06T02:42:26.535Z,72.11
2023-03-06T02:46:17.810Z,72.10
2023-03-06T02:50:07.144Z,72.00
2023-03-06T02:53:56.402Z,71.76
2023-03-06T02:57:45.574Z,71.71
2023-03-06T03:01:28.500Z,72.11
2023-03-06T03:04:48.526Z,71.70
2023-03-06T03:08:31.735Z,71.57
2023-03-06T03:12:20.948Z,72.05
2023-03-06T03:16:01.897Z,72.86
2023-03-06T03:19:43.579Z,72.03
2023-03-06T03:22:43.891Z,73.29
2023-03-06T03:26:13.498Z,73.86
2023-03-06T03:29:45.509Z,73.42
2023-03-06T03:33:20.954Z,73.14
2023-03-06T03:36:59.171Z,72.28
2023-03-06T03:40:38.904Z,72.69
2023-03-06T03:43:36.284Z,73.33
2023-03-06T03:46:56.124Z,73.87
2023-03-06T03:50:26.354Z,72.90
2023-03-06T03:54:12.132Z,72.38
2023-03-06T03:57:12.807Z,73.81
2023-03-06T04:00:45.215Z,74.03
2023-03-06T04:04:28.197Z,73.34
2023-03-06T04:08:11.062Z,73.75
2023-03-06T04:11:35.348Z,73.87
2023-03-06T04:14:51.673Z,73.51
2023-03-06T04:18:23.395Z,73.86
2023-03-06T04:21:51.142Z,72.39
2023-03-06T04:25:30.361Z,72.38
2023-03-06T04:28:49.901Z,72.10
2023-03-06T04:32:33.054Z,72.45
2023-03-06T04:35:37.649Z,72.51
2023-03-06T04:39:26.892Z,73.37
2023-03-06T04:42:43.744Z,72.58
2023-03-06T04:46:05.869Z,72.63
2023-03-06T04:49:34.693Z,73.45
2023-03-06T04:52:33.295Z,74.17
2023-03-06T04:55:54.642Z,74.26
2023-03-06T04:59:26.516Z,74.57
2023-03-06T05:03:15.779Z,74.33
2023-03-06T05:07:05.026Z,75.41
2023-03-06T05:10:35.493Z,73.73
2023-03-06T05:13:41.532Z,73.24
2023-03-06T05:16:57.896Z,72.89
2023-03-06T05:20:28.559Z,72.60
2023-03-06T05:23:52.787Z,72.01
2023-03-06T05:27:42.117Z,71.94
2023-03-06T05:31:31.331Z,70.78
2023-03-06T05:34:57.387Z,70.95
2023-03-06T05:38:46.756Z,70.95
2023-03-06T05:42:19.833Z,70.60
2023-03-06T05:45:36.472Z,70.73
2023-03-06T05:48:35.760Z,71.00
2023-03-06T05:52:07.405Z,70.77
2023-03-06T05:55:28.176Z,71.57
2023-03-06T05:58:09.221Z,71.73
2023-03-06T06:01:00.272Z,72.17
2023-03-06T06:03:54.257Z,71.93
2023-03-06T06:07:06.299Z,72.00
2023-03-06T06:10:21.585Z,71.18
2023-03-06T06:13:45.346Z,71.22
2023-03-06T06:17:19.693Z,70.77
2023-03-06T06:20:58.565Z,70.87
2023-03-06T06:24:18.567Z,70.81
2023-03-06T06:27:33.066Z,70.76
2023-03-06T06:30:52.248Z,71.04
2023-03-06T06:34:44.357Z,70.66
2023-03-06T06:38:13.389Z,70.66
2023-03-06T06:42:21.696Z,70.95
2023-03-06T06:45:50.512Z,70.63
2023-03-06T06:49:39.864Z,71.32
2023-03-06T06:52:23.233Z,72.03
2023-03-06T06:56:05.496Z,71.15
2023-03-06T06:59:26.373Z,70.69
2023-03-06T07:03:15.463Z,70.63
2023-03-06T07:06:37.506Z,70.41
2023-03-06T07:09:45.825Z,69.55
2023-03-06T07:12:57.028Z,68.83
2023-03-06T07:16:04.548Z,68.09
2023-03-06T07:19:32.700Z,66.96
2023-03-06T07:22:51.863Z,67.94
2023-03-06T07:26:23.715Z,68.04
2023-03-06T07:29:34.120Z,68.79
2023-03-06T07:33:23.364Z,68.27
2023-03-06T07:36:43.195Z,67.76
2023-03-06T07:40:09.546Z,67.75
2023-03-06T07:43:33.815Z,67.00
2023-03-06T07:46:43.784Z,67.41
2023-03-06T07:50:09.351Z,66.09
2023-03-06T07:53:22.727Z,66.61
2023-03-06T07:56:27.362Z,66.45
2023-03-06T07:59:18.947Z,66.65
2023-03-06T08:02:48.886Z,66.60
2023-03-06T08:05:56.834Z,66.96
2023-03-06T08:08:58.223Z,67.02
2023-03-06T08:12:09.889Z,67.50
2023-03-06T08:15:39.347Z,68.22
2023-03-06T08:19:28.512Z,68.28
2023-03-06T08:22:59.151Z,68.39
2023-03-06T08:26:36.110Z,67.93
2023-03-06T08:30:05.265Z,67.77
2023-03-06T08:33:54.511Z,67.36
2023-03-06T08:37:09.963Z,66.89
2023-03-06T08:40:54.152Z,66.33
2023-03-06T08:44:35.811Z,65.51
2023-03-06T08:48:24.757Z,65.66
2023-03-06T08:51:56.700Z,66.27
2023-03-06T08:55:31.522Z,66.29
2023-03-06T08:59:20.722Z,65.48
2023-03-06T09:03:08.835Z,65.59
2023-03-06T09:06:39.806Z,65.54
2023-03-06T09:10:28.552Z,65.11
2023-03-06T09:14:05.695Z,65.76
2023-03-06T09:17:38.284Z,65.18
2023-03-06T09:21:16.957Z,65.32
2023-03-06T09:24:48.682Z,65.22
2023-03-06T09:28:11.878Z,65.29
2023-03-06T09:31:50.348Z,65.35
2023-03-06T09:35:39.706Z,65.64
2023-03-06T09:38:41.635Z,65.45
2023-03-06T09:42:19.697Z,59.64
2023-03-06T09:45:45.195Z,61.49
2023-03-06T09:49:33.852Z,60.43
2023-03-06T09:53:18.218Z,58.36
2023-03-06T09:56:38.983Z,55.81
2023-03-06T09:59:37.617Z,54.73
2023-03-06T10:03:26.828Z,57.83
2023-03-06T10:06:44.679Z,56.52
2023-03-06T10:10:25.853Z,56.52
2023-03-06T10:13:39.483Z,53.74
2023-03-06T10:17:23.757Z,53.76
2023-03-06T10:21:18.782Z,54.26
2023-03-06T10:25:06.009Z,53.00
2023-03-06T10:28:23.824Z,52.14
2023-03-06T10:31:35.269Z,51.07
2023-03-06T10:34:24.401Z,50.54
2023-03-06T10:36:52.770Z,48.67
2023-03-06T10:39:22.952Z,47.75
2023-03-06T10:41:51.311Z,46.43
2023-03-06T10:44:21.873Z,46.71
2023-03-06T10:46:52.697Z,45.38
2023-03-06T10:49:32.234Z,43.94
2023-03-06T10:52:21.067Z,44.36
2023-03-06T10:54:52.080Z,43.91
2023-03-06T10:57:29.650Z,46.25
2023-03-06T11:00:00.392Z,47.22
2023-03-06T11:02:33.092Z,42.94
2023-03-06T11:05:31.783Z,44.46
2023-03-06T11:08:40.260Z,44.56
2023-03-06T11:11:42.171Z,44.50
2023-03-06T11:14:19.568Z,44.08
2023-03-06T11:17:31.612Z,44.95
2023-03-06T11:20:50.610Z,44.88
2023-03-06T11:24:35.921Z,45.78
2023-03-06T11:27:59.091Z,45.86
2023-03-06T11:31:49.004Z,45.52
2023-03-06T11:35:27.606Z,46.68
2023-03-06T11:38:59.362Z,46.86
2023-03-06T11:42:34.509Z,47.38
2023-03-06T11:46:07.459Z,48.91
2023-03-06T11:49:45.391Z,47.77
2023-03-06T11:52:32.288Z,48.17
2023-03-06T11:55:01.208Z,47.05
2023-03-06T11:57:50.854Z,48.75
2023-03-06T12:01:32.708Z,48.87
2023-03-06T12:04:59.331Z,49.03
2023-03-06T12:08:36.606Z,48.45
2023-03-06T12:12:27.257Z,47.97
2023-03-06T12:15:57.087Z,47.40
2023-03-06T12:19:37.838Z,47.86
2023-03-06T12:22:57.616Z,47.04
2023-03-06T12:26:30.758Z,48.02
2023-03-06T12:30:21.663Z,48.40
2023-03-06T12:33:42.561Z,47.46
2023-03-06T12:36:52.711Z,48.94
2023-03-06T12:39:47.332Z,48.21
2023-03-06T12:42:48.304Z,48.07
2023-03-06T12:45:54.395Z,47.73
2023-03-06T12:49:09.187Z,48.89
2023-03-06T12:52:16.046Z,48.13
2023-03-06T12:55:44.669Z,48.75
2023-03-06T12:59:06.046Z,47.16
2023-03-06T13:02:06.461Z,47.54
2023-03-06T13:05:47.390Z,47.28
2023-03-06T13:09:42.899Z,48.59
2023-03-06T13:13:33.492Z,47.59
2023-03-06T13:16:52.610Z,47.99
2023-03-06T13:20:30.732Z,48.53
2023-03-06T13:24:27.695Z,48.18
2023-03-06T13:28:02.746Z,49.17
2023-03-06T13:31:33.875Z,48.99
2023-03-06T13:35:13.968Z,48.48
2023-03-06T13:38:55.498Z,49.23
2023-03-06T13:42:27.415Z,48.24
2023-03-06T13:45:44.016Z,49.11
2023-03-06T13:49:05.602Z,47.44
2023-03-06T13:52:47.443Z,47.69
2023-03-06T13:56:59.826Z,47.54
2023-03-06T14:00:27.293Z,48.78
2023-03-06T14:04:00.824Z,48.24
2023-03-06T14:07:04.402Z,49.08
2023-03-06T14:10:01.256Z,49.08
2023-03-06T14:13:41.863Z,49.21
2023-03-06T14:17:11.430Z,48.84
2023-03-06T14:19:43.562Z,48.91
2023-03-06T14:22:37.812Z,48.59
2023-03-06T14:25:55.132Z,49.33
2023-03-06T14:28:30.082Z,49.29
2023-03-06T14:31:04.959Z,49.18
2023-03-06T14:34:36.440Z,49.97
2023-03-06T14:37:41.416Z,48.73
2023-03-06T14:40:58.123Z,49.75
2023-03-06T14:44:12.830Z,50.14
2023-03-06T14:47:11.651Z,50.62
2023-03-06T14:49:50.975Z,50.75
2023-03-06T14:52:27.448Z,51.14
2023-03-06T14:55:12.156Z,51.59
2023-03-06T14:57:47.475Z,51.18
2023-03-06T15:00:56.736Z,50.93
2023-03-06T15:04:43.238Z,51.55
2023-03-06T15:08:14.898Z,51.53
2023-03-06T15:11:14.879Z,50.96
2023-03-06T15:14:26.731Z,50.39
2023-03-06T15:18:11.929Z,50.59
2023-03-06T15:21:25.617Z,50.69
2023-03-06T15:25:03.106Z,50.55
2023-03-06T15:28:13.897Z,50.19
2023-03-06T15:31:00.434Z,50.25
2023-03-06T15:34:13.147Z,50.85
2023-03-06T15:37:33.799Z,51.09
2023-03-06T15:40:53.423Z,51.27
2023-03-06T15:44:40.446Z,51.64
2023-03-06T15:47:43.931Z,51.74
2023-03-06T15:51:21.477Z,52.06
2023-03-06T15:55:02.413Z,52.29
2023-03-06T15:58:31.576Z,52.69
2023-03-06T16:01:42.573Z,52.94
2023-03-06T16:04:29.964Z,53.79
2023-03-06T16:07:29.748Z,53.68
2023-03-06T16:10:14.003Z,53.94
2023-03-06T16:13:45.874Z,53.97
2023-03-06T16:17:13.818Z,54.46
2023-03-06T16:20:48.061Z,54.44
2023-03-06T16:24:22.778Z,54.55
2023-03-06T16:27:48.563Z,54.38
2023-03-06T16:31:37.824Z,54.45
2023-03-06T16:35:09.754Z,55.28
2023-03-06T16:38:33.976Z,55.67
2023-03-06T16:42:01.492Z,56.89
2023-03-06T16:45:51.093Z,58.06
2023-03-06T16:49:12.600Z,56.36
2023-03-06T16:52:14.698Z,56.49
2023-03-06T16:55:15.324Z,57.43
2023-03-06T16:58:05.371Z,55.68
2023-03-06T17:00:51.195Z,55.91
2023-03-06T17:03:39.749Z,59.16
2023-03-06T17:07:00.695Z,60.20
2023-03-06T17:10:41.079Z,57.31
2023-03-06T17:14:28.765Z,57.60
2023-03-06T17:18:14.418Z,58.94
2023-03-06T17:25:34.544Z,57.55
2023-03-06T17:29:23.727Z,61.87
2023-03-06T17:33:11.991Z,63.69
2023-03-06T17:36:47.467Z,60.18
2023-03-06T17:39:50.001Z,60.86
2023-03-06T17:42:52.777Z,64.93
2023-03-06T17:46:25.295Z,66.52
2023-03-06T17:49:41.244Z,64.93
2023-03-06T17:52:43.644Z,64.68
2023-03-06T17:55:15.155Z,64.99
2023-03-06T17:58:05.599Z,65.61
2023-03-06T18:01:21.983Z,62.78
2023-03-06T18:04:43.216Z,63.27
2023-03-06T18:07:39.810Z,64.17
2023-03-06T18:10:47.741Z,62.78
2023-03-06T18:13:44.460Z,62.82
2023-03-06T18:16:33.813Z,66.12
2023-03-06T18:19:41.693Z,67.48
2023-03-06T18:23:07.318Z,68.61
2023-03-06T18:26:11.630Z,68.89
2023-03-06T18:29:30.894Z,64.21
2023-03-06T18:32:28.362Z,64.47
2023-03-06T18:35:09.600Z,66.34
2023-03-06T18:38:39.140Z,64.39
2023-03-06T18:41:46.706Z,63.64
2023-03-06T18:44:57.611Z,64.48
2023-03-06T18:48:29.136Z,65.82
2023-03-06T18:52:03.103Z,67.23
2023-03-06T18:55:30.495Z,67.51
2023-03-06T18:58:19.456Z,66.56
2023-03-06T19:01:49.986Z,65.84
2023-03-06T19:04:57.653Z,69.97
2023-03-06T19:07:37.775Z,69.73
2023-03-06T19:10:33.901Z,68.70
2023-03-06T19:14:08.123Z,69.08
2023-03-06T19:17:17.497Z,66.97
2023-03-06T19:19:56.549Z,67.20
2023-03-06T19:22:30.210Z,68.06
2023-03-06T19:26:04.092Z,67.32
2023-03-06T19:29:33.518Z,68.72
2023-03-06T19:33:25.318Z,66.82
2023-03-06T19:36:56.795Z,65.74
2023-03-06T19:40:46.297Z,65.97
2023-03-06T19:44:34.553Z,67.72
2023-03-06T19:48:06.061Z,66.79
2023-03-06T19:51:55.282Z,66.71
2023-03-06T19:55:47.120Z,68.13
2023-03-06T19:59:01.534Z,69.14
2023-03-06T20:02:53.292Z,69.09
2023-03-06T20:06:28.464Z,68.13
2023-03-06T20:10:03.309Z,69.24
2023-03-06T20:13:52.553Z,70.21
2023-03-06T20:17:34.810Z,70.00
2023-03-06T20:21:09.330Z,67.41
2023-03-06T20:24:44.153Z,67.36
2023-03-06T20:28:12.230Z,67.16
2023-03-06T20:31:56.759Z,67.36
2023-03-06T20:35:28.792Z,71.08
2023-03-06T20:39:18.118Z,70.70
2023-03-06T20:43:00.148Z,71.10
2023-03-06T20:46:36.160Z,70.09
2023-03-06T20:50:17.855Z,67.47
2023-03-06T20:54:06.960Z,67.94
2023-03-06T20:57:56.137Z,68.68
2023-03-06T21:01:33.413Z,68.89
2023-03-06T21:05:18.894Z,70.56
2023-03-06T21:08:50.721Z,70.37
2023-03-06T21:12:31.492Z,70.95
2023-03-06T21:15:54.039Z,70.96
2023-03-06T21:19:35.409Z,71.13
2023-03-06T21:23:10.257Z,72.25
2023-03-06T21:26:52.096Z,70.69
2023-03-06T21:30:35.251Z,70.74
2023-03-06T21:34:16.996Z,72.79
2023-03-06T21:38:06.274Z,70.51
2023-03-06T21:42:13.101Z,69.34
2023-03-06T21:46:02.438Z,69.25
2023-03-06T21:49:44.588Z,69.61
2023-03-06T21:53:21.018Z,69.30
2023-03-06T21:57:10.352Z,70.58
2023-03-06T22:00:59.717Z,71.71
2023-03-06T22:04:49.002Z,70.05
2023-03-06T22:08:38.258Z,69.87
2023-03-06T22:12:19.993Z,70.89
2023-03-06T22:16:08.898Z,71.56
2023-03-06T22:19:50.957Z,71.40
2023-03-06T22:23:40.193Z,71.92
2023-03-06T22:27:29.195Z,72.14
2023-03-06T22:31:11.185Z,71.97
2023-03-06T22:35:00.387Z,72.51
2023-03-06T22:38:40.968Z,72.99
2023-03-06T22:42:28.619Z,73.43
2023-03-06T22:46:17.000Z,72.39
2023-03-06T22:50:06.427Z,72.93
2023-03-06T22:53:49.670Z,71.35
2023-03-06T22:57:31.716Z,71.90
2023-03-06T23:01:19.609Z,72.11
2023-03-06T23:05:08.873Z,72.21
2023-03-06T23:08:49.302Z,71.11
2023-03-06T23:12:17.934Z,72.24
2023-03-06T23:15:56.605Z,71.12
2023-03-06T23:19:26.762Z,73.01
2023-03-06T23:23:14.135Z,71.72
2023-03-06T23:26:41.739Z,72.31
2023-03-06T23:30:29.559Z,71.36
2023-03-06T23:34:18.522Z,71.89
2023-03-06T23:38:00.131Z,73.03
2023-03-06T23:41:49.577Z,73.06
2023-03-06T23:45:31.545Z,73.24
2023-03-06T23:49:21.969Z,73.19
2023-03-06T23:53:11.241Z,72.48
2023-03-06T23:57:00.363Z,71.38
